createdAt,value
2022-09-06T00:01:24.408Z,22.00
2022-09-06T00:03:51.587Z,21.90
2022-09-06T00:06:20.143Z,21.90
2022-09-06T00:08:48.257Z,21.90
2022-09-06T00:11:17.374Z,21.80
2022-09-06T00:13:45.309Z,21.80
2022-09-06T00:16:19.246Z,21.80
2022-09-06T00:18:46.478Z,21.80
2022-09-06T00:21:17.110Z,21.70
2022-09-06T00:23:44.092Z,21.70
2022-09-06T00:26:10.905Z,21.70
2022-09-06T00:28:38.222Z,21.60
2022-09-06T00:31:17.281Z,21.60
2022-09-06T00:33:44.577Z,21.60
2022-09-06T00:36:12.574Z,21.60
2022-09-06T00:38:39.911Z,21.60
2022-09-06T00:41:08.200Z,21.60
2022-09-06T00:43:35.394Z,21.60
2022-09-06T00:46:03.169Z,21.60
2022-09-06T00:48:30.025Z,21.60
2022-09-06T00:51:00.888Z,21.60
2022-09-06T00:53:28.157Z,21.60
2022-09-06T00:55:55.368Z,21.50
2022-09-06T00:58:22.769Z,21.50
2022-09-06T01:00:49.724Z,21.50
2022-09-06T01:03:16.687Z,21.50
2022-09-06T01:05:58.078Z,21.50
2022-09-06T01:08:36.179Z,21.50
2022-09-06T01:11:40.400Z,21.40
2022-09-06T01:14:35.733Z,21.50
2022-09-06T01:17:08.360Z,21.40
2022-09-06T01:19:56.459Z,21.40
2022-09-06T01:22:29.007Z,21.40
2022-09-06T01:25:18.945Z,21.40
2022-09-06T01:28:09.894Z,21.40
2022-09-06T01:30:42.824Z,21.30
2022-09-06T01:33:32.306Z,21.30
2022-09-06T01:36:04.122Z,21.30
2022-09-06T01:38:31.002Z,21.30
2022-09-06T01:40:57.665Z,21.20
2022-09-06T01:43:28.988Z,21.20
2022-09-06T01:46:07.296Z,21.20
2022-09-06T01:48:54.969Z,21.20
2022-09-06T01:51:37.657Z,21.10
2022-09-06T01:54:15.535Z,21.10
2022-09-06T01:57:01.026Z,21.00
2022-09-06T01:59:55.145Z,21.00
2022-09-06T02:02:27.621Z,21.00
2022-09-06T02:05:04.792Z,20.90
2022-09-06T02:07:34.936Z,21.00
2022-09-06T02:10:16.861Z,20.90
2022-09-06T02:12:47.794Z,20.90
2022-09-06T02:15:26.714Z,20.90
2022-09-06T02:18:24.587Z,20.80
2022-09-06T02:20:55.945Z,20.80
2022-09-06T02:23:27.498Z,20.70
2022-09-06T02:26:21.619Z,20.70
2022-09-06T02:28:48.821Z,20.70
2022-09-06T02:31:29.114Z,20.60
2022-09-06T02:33:56.575Z,20.60
2022-09-06T02:36:24.206Z,20.60
2022-09-06T02:38:51.607Z,20.50
2022-09-06T02:41:22.650Z,20.50
2022-09-06T02:43:49.587Z,20.50
2022-09-06T02:46:16.325Z,20.50
2022-09-06T02:48:43.045Z,20.50
2022-09-06T02:51:09.971Z,20.40
2022-09-06T02:53:36.668Z,20.40
2022-09-06T02:56:03.965Z,20.40
2022-09-06T02:58:31.043Z,20.40
2022-09-06T03:00:57.982Z,20.40
2022-09-06T03:03:25.067Z,20.40
2022-09-06T03:05:53.408Z,20.40
2022-09-06T03:08:22.968Z,20.40
2022-09-06T03:10:50.974Z,20.40
2022-09-06T03:13:18.147Z,20.40
2022-09-06T03:15:45.102Z,20.40
2022-09-06T03:18:11.761Z,20.40
2022-09-06T03:20:38.440Z,20.40
2022-09-06T03:23:05.437Z,20.40
2022-09-06T03:25:32.122Z,20.30
2022-09-06T03:27:58.770Z,20.40
2022-09-06T03:30:25.460Z,20.30
2022-09-06T03:32:52.159Z,20.30
2022-09-06T03:35:18.897Z,20.30
2022-09-06T03:37:45.652Z,20.30
2022-09-06T03:40:12.403Z,20.20
2022-09-06T03:42:39.180Z,20.30
2022-09-06T03:45:07.493Z,20.30
2022-09-06T03:47:34.202Z,20.30
2022-09-06T03:50:00.889Z,20.20
2022-09-06T03:52:27.551Z,20.20
2022-09-06T03:54:54.235Z,20.20
2022-09-06T03:57:20.953Z,20.20
2022-09-06T03:59:47.626Z,20.10
2022-09-06T04:02:14.710Z,20.10
2022-09-06T04:04:41.394Z,20.10
2022-09-06T04:07:08.044Z,20.10
2022-09-06T04:09:34.779Z,20.10
2022-09-06T04:12:01.514Z,20.10
2022-09-06T04:14:28.191Z,20.10
2022-09-06T04:16:55.084Z,20.00
2022-09-06T04:19:21.906Z,20.00
2022-09-06T04:21:48.597Z,20.00
2022-09-06T04:24:15.294Z,20.00
2022-09-06T04:26:42.004Z,20.00
2022-09-06T04:29:08.689Z,20.00
2022-09-06T04:31:35.434Z,19.90
2022-09-06T04:34:02.139Z,19.90
2022-09-06T04:36:29.858Z,19.90
2022-09-06T04:38:56.698Z,19.90
2022-09-06T04:41:23.664Z,19.90
2022-09-06T04:43:50.416Z,19.90
2022-09-06T04:46:26.828Z,19.80
2022-09-06T04:48:54.870Z,19.80
2022-09-06T04:51:22.222Z,19.80
2022-09-06T04:53:49.071Z,19.80
2022-09-06T04:56:18.524Z,19.80
2022-09-06T04:58:46.668Z,19.80
2022-09-06T05:01:13.703Z,19.80
2022-09-06T05:03:40.563Z,19.80
2022-09-06T05:06:08.246Z,19.80
2022-09-06T05:08:40.594Z,19.80
2022-09-06T05:11:08.754Z,19.80
2022-09-06T05:13:35.786Z,19.80
2022-09-06T05:16:03.938Z,19.80
2022-09-06T05:18:31.053Z,19.80
2022-09-06T05:20:58.925Z,19.70
2022-09-06T05:23:26.774Z,19.70
2022-09-06T05:25:54.081Z,19.70
2022-09-06T05:28:21.169Z,19.70
2022-09-06T05:30:47.927Z,19.70
2022-09-06T05:33:20.697Z,19.70
2022-09-06T05:35:48.933Z,19.60
2022-09-06T05:38:15.671Z,19.60
2022-09-06T05:40:42.397Z,19.60
2022-09-06T05:43:09.059Z,19.60
2022-09-06T05:45:35.891Z,19.60
2022-09-06T05:48:02.954Z,19.60
2022-09-06T05:50:29.651Z,19.60
2022-09-06T05:52:56.398Z,19.60
2022-09-06T05:55:23.089Z,19.60
2022-09-06T05:57:49.786Z,19.60
2022-09-06T06:00:16.649Z,19.60
2022-09-06T06:02:43.461Z,19.60
2022-09-06T06:05:10.266Z,19.60
2022-09-06T06:07:36.926Z,19.60
2022-09-06T06:10:04.427Z,19.60
2022-09-06T06:12:31.106Z,19.60
2022-09-06T06:14:57.792Z,19.60
2022-09-06T06:17:24.625Z,19.60
2022-09-06T06:19:51.326Z,19.60
2022-09-06T06:22:17.977Z,19.70
2022-09-06T06:24:44.641Z,19.70
2022-09-06T06:27:11.292Z,19.70
2022-09-06T06:29:37.969Z,19.70
2022-09-06T06:32:04.850Z,19.70
2022-09-06T06:34:31.578Z,19.70
2022-09-06T06:36:59.100Z,19.80
2022-09-06T06:39:25.913Z,19.80
2022-09-06T06:41:53.181Z,19.90
2022-09-06T06:44:19.831Z,20.00
2022-09-06T06:46:46.472Z,20.00
2022-09-06T06:49:13.211Z,20.00
2022-09-06T06:51:39.893Z,20.10
2022-09-06T06:54:06.888Z,20.20
2022-09-06T06:56:36.433Z,20.20
2022-09-06T06:59:05.379Z,20.30
2022-09-06T07:01:33.755Z,20.30
2022-09-06T07:04:00.705Z,20.40
2022-09-06T07:09:18.228Z,20.50
2022-09-06T07:11:45.745Z,20.60
2022-09-06T07:14:12.484Z,20.70
2022-09-06T07:16:39.205Z,20.70
2022-09-06T07:19:06.179Z,20.80
2022-09-06T07:26:34.983Z,21.00
2022-09-06T07:29:03.619Z,21.10
2022-09-06T07:34:19.222Z,21.20
2022-09-06T07:36:45.950Z,21.20
2022-09-06T07:39:12.760Z,21.30
2022-09-06T07:41:39.550Z,21.30
2022-09-06T07:44:06.216Z,21.40
2022-09-06T07:46:33.077Z,21.40
2022-09-06T07:48:59.784Z,21.50
2022-09-06T07:51:26.480Z,21.50
2022-09-06T07:54:07.486Z,21.60
2022-09-06T07:56:42.528Z,21.60
2022-09-06T07:59:09.357Z,21.60
2022-09-06T08:01:39.713Z,21.70
2022-09-06T08:04:13.887Z,21.80
2022-09-06T08:09:34.885Z,21.90
2022-09-06T08:12:06.702Z,21.90
2022-09-06T08:14:34.185Z,22.00
2022-09-06T08:17:01.061Z,22.10
2022-09-06T08:19:27.748Z,22.10
2022-09-06T08:21:55.434Z,22.20
2022-09-06T08:24:22.109Z,22.30
2022-09-06T08:26:48.900Z,22.30
2022-09-06T08:29:15.548Z,22.30
2022-09-06T08:31:44.039Z,22.40
2022-09-06T08:34:14.314Z,22.50
2022-09-06T08:36:42.240Z,22.60
2022-09-06T08:39:10.052Z,22.70
2022-09-06T08:41:50.098Z,22.80
2022-09-06T08:47:18.963Z,22.90
2022-09-06T08:49:47.897Z,23.00
2022-09-06T08:52:17.606Z,23.10
2022-09-06T08:54:47.401Z,23.20
2022-09-06T08:57:39.569Z,23.20
2022-09-06T09:00:11.286Z,23.30
2022-09-06T09:02:46.671Z,23.40
2022-09-06T09:05:25.941Z,23.50
2022-09-06T09:08:06.070Z,23.60
2022-09-06T09:10:59.164Z,23.60
2022-09-06T09:13:53.159Z,23.70
2022-09-06T09:16:22.611Z,23.80
2022-09-06T09:19:01.926Z,23.80
2022-09-06T09:21:31.616Z,23.90
2022-09-06T09:24:06.917Z,24.00
2022-09-06T09:26:56.790Z,24.10
2022-09-06T09:29:27.972Z,24.10
2022-09-06T09:31:59.237Z,24.20
2022-09-06T09:34:35.996Z,24.30
2022-09-06T09:40:40.110Z,24.40
2022-09-06T09:43:24.771Z,24.50
2022-09-06T09:46:24.513Z,24.50
2022-09-06T09:49:12.245Z,24.60
2022-09-06T09:51:40.338Z,24.70
2022-09-06T09:54:10.065Z,24.70
2022-09-06T09:56:43.480Z,24.80
2022-09-06T09:59:20.502Z,24.80
2022-09-06T10:01:47.983Z,24.90
2022-09-06T10:07:17.034Z,25.00
2022-09-06T10:09:51.248Z,25.20
2022-09-06T10:12:29.010Z,25.20
2022-09-06T10:14:56.425Z,25.30
2022-09-06T10:17:35.296Z,25.30
2022-09-06T10:20:07.982Z,25.30
2022-09-06T10:22:59.380Z,25.40
2022-09-06T10:25:48.998Z,25.50
2022-09-06T10:28:45.349Z,25.60
2022-09-06T10:31:29.948Z,25.60
2022-09-06T10:34:10.556Z,25.70
2022-09-06T10:36:45.929Z,25.80
2022-09-06T10:39:23.161Z,25.90
2022-09-06T10:42:28.988Z,26.00
2022-09-06T10:45:13.478Z,26.10
2022-09-06T10:47:56.117Z,26.10
2022-09-06T10:50:50.660Z,26.20
2022-09-06T10:53:41.912Z,26.30
2022-09-06T10:56:10.961Z,26.30
2022-09-06T11:01:48.321Z,26.40
2022-09-06T11:04:23.631Z,26.40
2022-09-06T11:06:55.884Z,26.40
2022-09-06T11:09:33.666Z,26.40
2022-09-06T11:12:19.671Z,26.50
2022-09-06T11:14:47.069Z,26.50
2022-09-06T11:17:33.593Z,26.50
2022-09-06T11:20:03.482Z,26.60
2022-09-06T11:22:50.158Z,26.70
2022-09-06T11:25:29.511Z,26.70
2022-09-06T11:28:00.003Z,26.70
2022-09-06T11:30:29.741Z,26.80
2022-09-06T11:33:30.142Z,26.90
2022-09-06T11:36:29.116Z,26.90
2022-09-06T11:39:01.976Z,26.90
2022-09-06T11:41:35.240Z,27.00
2022-09-06T11:44:03.143Z,27.00
2022-09-06T11:46:36.024Z,27.00
2022-09-06T11:49:02.777Z,27.00
2022-09-06T11:51:39.600Z,27.00
2022-09-06T11:54:15.833Z,27.00
2022-09-06T11:57:07.250Z,27.10
2022-09-06T11:59:46.466Z,27.10
2022-09-06T12:02:40.827Z,27.20
2022-09-06T12:05:11.942Z,27.20
2022-09-06T12:07:59.431Z,27.20
2022-09-06T12:10:41.924Z,27.30
2022-09-06T12:13:41.091Z,27.30
2022-09-06T12:16:09.513Z,27.40
2022-09-06T12:18:48.135Z,27.40
2022-09-06T12:21:43.324Z,27.40
2022-09-06T12:24:35.147Z,27.40
2022-09-06T12:27:16.586Z,27.50
2022-09-06T12:29:58.746Z,27.50
2022-09-06T12:32:37.390Z,27.60
2022-09-06T12:38:06.908Z,27.80
2022-09-06T12:40:46.613Z,27.80
2022-09-06T12:43:16.831Z,27.90
2022-09-06T12:45:48.924Z,27.90
2022-09-06T12:48:35.163Z,27.90
2022-09-06T12:51:13.523Z,28.00
2022-09-06T12:53:40.445Z,28.00
2022-09-06T12:56:12.122Z,28.10
2022-09-06T12:58:39.535Z,28.10
2022-09-06T13:01:22.933Z,28.10
2022-09-06T13:04:08.365Z,28.20
2022-09-06T13:06:40.241Z,28.20
2022-09-06T13:09:11.240Z,28.20
2022-09-06T13:11:43.500Z,28.30
2022-09-06T13:14:14.270Z,28.20
2022-09-06T13:16:50.445Z,28.30
2022-09-06T13:19:29.813Z,28.30
2022-09-06T13:21:58.348Z,28.30
2022-09-06T13:24:32.258Z,28.30
2022-09-06T13:26:58.977Z,28.40
2022-09-06T13:29:30.751Z,28.40
2022-09-06T13:31:59.896Z,28.50
2022-09-06T13:34:32.285Z,28.50
2022-09-06T13:37:10.173Z,28.60
2022-09-06T13:39:39.727Z,28.70
2022-09-06T13:42:08.985Z,28.70
2022-09-06T13:44:37.802Z,28.80
2022-09-06T13:47:05.463Z,29.00
2022-09-06T13:49:32.923Z,29.20
2022-09-06T13:52:04.315Z,29.40
2022-09-06T13:54:33.860Z,29.60
2022-09-06T13:57:04.173Z,30.00
2022-09-06T13:59:31.752Z,30.50
2022-09-06T14:02:04.820Z,31.00
2022-09-06T14:04:32.517Z,31.40
2022-09-06T14:06:59.345Z,31.70
2022-09-06T14:09:26.261Z,31.90
2022-09-06T14:11:53.223Z,32.20
2022-09-06T14:14:19.951Z,32.30
2022-09-06T14:16:50.313Z,32.50
2022-09-06T14:19:17.232Z,32.60
2022-09-06T14:21:43.943Z,32.70
2022-09-06T14:24:10.872Z,32.70
2022-09-06T14:26:38.664Z,32.70
2022-09-06T14:29:05.830Z,32.60
2022-09-06T14:31:32.963Z,32.60
2022-09-06T14:34:00.843Z,32.50
2022-09-06T14:36:29.932Z,32.40
2022-09-06T14:38:58.444Z,32.40
2022-09-06T14:41:25.475Z,32.40
2022-09-06T14:43:55.559Z,32.40
2022-09-06T14:46:24.035Z,32.40
2022-09-06T14:48:57.810Z,32.40
2022-09-06T14:51:24.832Z,32.40
2022-09-06T14:54:01.516Z,32.50
2022-09-06T14:56:28.381Z,32.50
2022-09-06T14:58:57.410Z,32.50
2022-09-06T15:01:27.063Z,32.50
2022-09-06T15:03:59.572Z,32.40
2022-09-06T15:06:27.540Z,32.30
2022-09-06T15:08:59.126Z,32.20
2022-09-06T15:11:30.271Z,32.10
2022-09-06T15:13:58.403Z,31.90
2022-09-06T15:16:25.123Z,31.80
2022-09-06T15:18:51.888Z,31.60
2022-09-06T15:21:18.852Z,31.50
2022-09-06T15:23:45.640Z,31.40
2022-09-06T15:26:14.309Z,31.30
2022-09-06T15:28:43.196Z,31.10
2022-09-06T15:31:11.394Z,30.90
2022-09-06T15:33:39.144Z,30.70
2022-09-06T15:36:07.410Z,30.60
2022-09-06T15:38:42.756Z,30.40
2022-09-06T15:41:12.818Z,30.30
2022-09-06T15:43:42.359Z,30.20
2022-09-06T15:46:10.139Z,30.20
2022-09-06T15:48:45.941Z,30.20
2022-09-06T15:51:15.937Z,30.30
2022-09-06T15:53:43.530Z,30.30
2022-09-06T15:56:13.503Z,30.30
2022-09-06T15:58:40.289Z,30.30
2022-09-06T16:01:13.079Z,30.20
2022-09-06T16:03:46.951Z,30.20
2022-09-06T16:06:28.456Z,30.10
2022-09-06T16:09:10.566Z,30.00
2022-09-06T16:11:37.857Z,29.90
2022-09-06T16:14:06.744Z,29.70
2022-09-06T16:16:34.831Z,29.70
2022-09-06T16:19:01.739Z,29.60
2022-09-06T16:21:32.230Z,29.50
2022-09-06T16:24:02.074Z,29.30
2022-09-06T16:26:32.178Z,29.30
2022-09-06T16:28:59.897Z,29.20
2022-09-06T16:31:27.642Z,29.00
2022-09-06T16:33:54.756Z,29.00
2022-09-06T16:36:21.986Z,28.90
2022-09-06T16:38:49.295Z,28.90
2022-09-06T16:41:15.932Z,28.80
2022-09-06T16:43:43.021Z,28.70
2022-09-06T16:46:09.856Z,28.70
2022-09-06T16:48:36.954Z,28.60
2022-09-06T16:51:15.811Z,28.50
2022-09-06T16:53:45.116Z,28.50
2022-09-06T16:56:14.903Z,28.40
2022-09-06T16:58:49.129Z,28.30
2022-09-06T17:01:16.421Z,28.20
2022-09-06T17:03:43.869Z,28.20
2022-09-06T17:06:10.558Z,28.10
2022-09-06T17:08:37.478Z,28.10
2022-09-06T17:11:09.480Z,28.00
2022-09-06T17:13:36.951Z,28.00
2022-09-06T17:16:23.122Z,27.90
2022-09-06T17:18:53.600Z,27.90
2022-09-06T17:21:24.445Z,27.80
2022-09-06T17:23:52.194Z,27.80
2022-09-06T17:26:21.150Z,27.70
2022-09-06T17:28:51.219Z,27.70
2022-09-06T17:31:22.400Z,27.70
2022-09-06T17:33:52.286Z,27.60
2022-09-06T17:36:25.171Z,27.60
2022-09-06T17:38:54.168Z,27.50
2022-09-06T17:41:27.930Z,27.40
2022-09-06T17:43:55.584Z,27.40
2022-09-06T17:46:28.378Z,27.30
2022-09-06T17:48:56.218Z,27.30
2022-09-06T17:51:23.431Z,27.20
2022-09-06T17:53:50.598Z,27.20
2022-09-06T17:56:18.756Z,27.10
2022-09-06T17:58:56.398Z,27.10
2022-09-06T18:01:25.040Z,27.00
2022-09-06T18:03:52.456Z,27.00
2022-09-06T18:06:22.823Z,26.90
2022-09-06T18:08:52.470Z,26.90
2022-09-06T18:11:28.011Z,26.80
2022-09-06T18:14:04.676Z,26.80
2022-09-06T18:16:33.296Z,26.70
2022-09-06T18:19:01.785Z,26.60
2022-09-06T18:21:31.042Z,26.60
2022-09-06T18:23:58.538Z,26.50
2022-09-06T18:26:26.014Z,26.40
2022-09-06T18:28:53.491Z,26.40
2022-09-06T18:31:22.520Z,26.30
2022-09-06T18:33:49.318Z,26.30
2022-09-06T18:36:16.827Z,26.20
2022-09-06T18:38:44.246Z,26.10
2022-09-06T18:41:31.190Z,26.10
2022-09-06T18:44:02.443Z,26.10
2022-09-06T18:46:33.959Z,26.00
2022-09-06T18:49:01.024Z,25.90
2022-09-06T18:51:28.426Z,25.90
2022-09-06T18:53:57.355Z,25.80
2022-09-06T18:56:24.518Z,25.80
2022-09-06T18:58:58.731Z,25.70
2022-09-06T19:01:29.064Z,25.70
2022-09-06T19:03:57.665Z,25.60
2022-09-06T19:06:24.636Z,25.50
2022-09-06T19:08:53.760Z,25.50
2022-09-06T19:11:21.804Z,25.40
2022-09-06T19:13:51.841Z,25.40
2022-09-06T19:16:18.893Z,25.30
2022-09-06T19:18:45.842Z,25.20
2022-09-06T19:21:15.133Z,25.10
2022-09-06T19:23:44.894Z,25.10
2022-09-06T19:26:17.381Z,25.00
2022-09-06T19:28:54.733Z,25.00
2022-09-06T19:31:22.591Z,24.90
2022-09-06T19:33:50.456Z,24.90
2022-09-06T19:36:18.656Z,24.80
2022-09-06T19:41:37.859Z,24.70
2022-09-06T19:44:09.246Z,24.60
2022-09-06T19:46:37.277Z,24.60
2022-09-06T19:49:08.086Z,24.50
2022-09-06T19:51:36.306Z,24.40
2022-09-06T19:54:03.611Z,24.40
2022-09-06T19:56:35.051Z,24.40
2022-09-06T19:59:09.975Z,24.30
2022-09-06T20:01:38.641Z,24.30
2022-09-06T20:04:07.961Z,24.20
2022-09-06T20:06:35.428Z,24.20
2022-09-06T20:09:03.769Z,24.20
2022-09-06T20:11:32.376Z,24.10
2022-09-06T20:14:00.220Z,24.10
2022-09-06T20:16:27.429Z,24.10
2022-09-06T20:18:54.862Z,24.10
2022-09-06T20:21:21.833Z,24.00
2022-09-06T20:23:50.442Z,24.00
2022-09-06T20:26:18.144Z,24.00
2022-09-06T20:28:45.185Z,24.00
2022-09-06T20:31:16.307Z,24.00
2022-09-06T20:33:47.182Z,23.90
2022-09-06T20:36:17.281Z,23.90
2022-09-06T20:38:45.003Z,23.90
2022-09-06T20:41:19.882Z,23.90
2022-09-06T20:43:55.291Z,23.90
2022-09-06T20:46:24.502Z,23.80
2022-09-06T20:48:51.831Z,23.70
2022-09-06T20:51:23.487Z,23.60
2022-09-06T20:53:58.337Z,23.50
2022-09-06T20:56:27.465Z,23.40
2022-09-06T20:58:56.732Z,23.40
2022-09-06T21:01:26.037Z,23.30
2022-09-06T21:03:57.786Z,23.20
2022-09-06T21:06:25.919Z,23.10
2022-09-06T21:08:53.268Z,23.10
2022-09-06T21:11:20.434Z,23.00
2022-09-06T21:13:52.522Z,23.00
2022-09-06T21:16:24.941Z,23.00
2022-09-06T21:18:53.845Z,22.90
2022-09-06T21:21:22.169Z,22.90
2022-09-06T21:23:49.226Z,22.90
2022-09-06T21:26:15.975Z,22.80
2022-09-06T21:28:43.292Z,22.80
2022-09-06T21:31:13.954Z,22.80
2022-09-06T21:33:49.155Z,22.80
2022-09-06T21:36:18.212Z,22.70
2022-09-06T21:38:47.262Z,22.70
2022-09-06T21:41:16.415Z,22.70
2022-09-06T21:43:43.802Z,22.70
2022-09-06T21:46:16.502Z,22.70
2022-09-06T21:48:45.624Z,22.70
2022-09-06T21:51:14.352Z,22.60
2022-09-06T21:53:42.967Z,22.60
2022-09-06T21:56:10.118Z,22.60
2022-09-06T21:58:37.265Z,22.60
2022-09-06T22:01:05.135Z,22.60
2022-09-06T22:03:35.141Z,22.60
2022-09-06T22:06:10.195Z,22.60
2022-09-06T22:08:37.215Z,22.60
2022-09-06T22:11:12.095Z,22.60
2022-09-06T22:13:39.383Z,22.50
2022-09-06T22:16:08.085Z,22.40
2022-09-06T22:18:35.374Z,22.30
2022-09-06T22:21:11.401Z,22.30
2022-09-06T22:23:38.508Z,22.30
2022-09-06T22:26:05.234Z,22.10
2022-09-06T22:28:33.067Z,22.00
2022-09-06T22:30:59.842Z,21.90
2022-09-06T22:33:26.614Z,21.80
2022-09-06T22:35:53.734Z,21.70
2022-09-06T22:38:20.688Z,21.60
2022-09-06T22:40:47.400Z,21.50
2022-09-06T22:43:14.802Z,21.40
2022-09-06T22:45:43.545Z,21.20
2022-09-06T22:48:10.224Z,21.00
2022-09-06T22:50:36.966Z,20.80
2022-09-06T22:53:03.967Z,20.60
2022-09-06T22:55:30.941Z,20.50
2022-09-06T22:57:57.627Z,20.30
2022-09-06T23:00:27.268Z,20.20
2022-09-06T23:02:54.145Z,20.10
2022-09-06T23:05:21.626Z,20.00
2022-09-06T23:07:49.983Z,19.80
2022-09-06T23:10:17.646Z,19.70
2022-09-06T23:12:44.313Z,19.60
2022-09-06T23:15:11.069Z,19.50
2022-09-06T23:17:37.878Z,19.40
2022-09-06T23:20:04.891Z,19.40
2022-09-06T23:22:31.634Z,19.30
2022-09-06T23:24:58.280Z,19.30
2022-09-06T23:27:24.964Z,19.30
2022-09-06T23:29:51.613Z,19.20
2022-09-06T23:32:18.282Z,19.20
2022-09-06T23:34:44.978Z,19.10
2022-09-06T23:37:11.683Z,19.10
2022-09-06T23:39:38.396Z,19.10
2022-09-06T23:42:05.470Z,19.00
2022-09-06T23:44:32.160Z,19.00
2022-09-06T23:46:58.929Z,19.00
2022-09-06T23:49:25.693Z,18.90
2022-09-06T23:51:53.432Z,18.90
2022-09-06T23:54:20.579Z,18.90
2022-09-06T23:56:47.238Z,18.90
2022-09-06T23:59:13.938Z,18.80
